createdAt,value
2019-06-07T02:25:50.233Z,99.90
2019-06-07T02:28:44.646Z,99.90
2019-06-07T02:30:59.413Z,99.90
2019-06-07T02:33:18.843Z,99.90
2019-06-07T02:35:50.180Z,99.90
2019-06-07T02:38:19.464Z,99.90
2019-06-07T02:40:48.750Z,99.90
2019-06-07T02:43:18.115Z,99.90
2019-06-07T02:45:47.518Z,99.90
2019-06-07T02:48:40.083Z,99.90
2019-06-07T02:51:07.038Z,99.90
2019-06-07T02:53:40.025Z,99.90
2019-06-07T02:58:41.710Z,99.90
2019-06-07T03:01:10.023Z,99.90
2019-06-07T03:03:40.216Z,99.90
2019-06-07T03:06:13.701Z,99.90
2019-06-07T03:08:46.521Z,99.90
2019-06-07T03:11:17.406Z,99.90
2019-06-07T03:13:48.887Z,99.90
2019-06-07T03:16:28.930Z,99.90
2019-06-07T03:19:08.290Z,99.90
2019-06-07T03:21:41.656Z,99.90
2019-06-07T03:24:11.684Z,99.90
2019-06-07T03:27:32.292Z,99.90
2019-06-07T03:29:32.258Z,99.90
2019-06-07T03:32:04.472Z,99.90
2019-06-07T03:34:40.475Z,99.90
2019-06-07T03:37:05.289Z,99.90
2019-06-07T03:39:37.017Z,99.90
2019-06-07T03:42:08.378Z,99.90
2019-06-07T03:44:40.624Z,99.90
2019-06-07T03:47:07.930Z,99.90
2019-06-07T03:49:41.717Z,99.90
2019-06-07T03:52:12.645Z,99.90
2019-06-07T03:54:42.020Z,99.90
2019-06-07T03:57:11.614Z,99.90
2019-06-07T03:59:41.626Z,99.90
2019-06-07T04:02:11.433Z,99.90
2019-06-07T04:04:40.797Z,99.90
2019-06-07T04:07:12.738Z,99.90
2019-06-07T04:09:43.205Z,99.90
2019-06-07T04:12:13.014Z,99.90
2019-06-07T04:14:42.810Z,99.90
2019-06-07T04:17:13.940Z,99.90
2019-06-07T04:19:43.904Z,99.90
2019-06-07T04:22:13.455Z,99.90
2019-06-07T04:24:42.788Z,99.90
2019-06-07T04:27:12.162Z,99.90
2019-06-07T04:30:05.798Z,99.90
2019-06-07T04:32:12.498Z,99.90
2019-06-07T04:34:43.163Z,99.90
2019-06-07T04:37:14.000Z,99.90
2019-06-07T04:39:45.561Z,99.90
2019-06-07T04:42:17.655Z,99.90
2019-06-07T04:44:48.591Z,99.90
2019-06-07T04:47:19.836Z,99.90
2019-06-07T04:49:50.032Z,99.90
2019-06-07T04:52:19.385Z,99.90
2019-06-07T04:54:48.943Z,99.90
2019-06-07T04:57:18.302Z,99.90
2019-06-07T05:00:12.135Z,99.90
2019-06-07T05:02:18.670Z,99.90
2019-06-07T05:04:48.077Z,99.90
2019-06-07T05:07:17.432Z,99.90
2019-06-07T05:09:47.134Z,99.90
2019-06-07T05:12:16.459Z,99.90
2019-06-07T05:14:45.862Z,99.90
2019-06-07T05:17:18.025Z,99.90
2019-06-07T05:19:47.298Z,99.90
2019-06-07T05:22:16.178Z,99.90
2019-06-07T05:24:45.419Z,99.90
2019-06-07T05:27:15.088Z,99.90
2019-06-07T05:29:58.401Z,99.90
2019-06-07T05:32:16.033Z,99.90
2019-06-07T05:34:47.316Z,99.90
2019-06-07T05:37:16.387Z,99.90
2019-06-07T05:39:46.665Z,99.90
2019-06-07T05:42:17.705Z,99.90
2019-06-07T05:44:49.773Z,99.90
2019-06-07T05:47:19.080Z,99.90
2019-06-07T05:49:48.615Z,99.90
2019-06-07T05:52:17.993Z,99.90
2019-06-07T05:54:47.347Z,99.90
2019-06-07T05:57:17.780Z,99.90
2019-06-07T05:59:47.773Z,99.90
2019-06-07T06:02:22.674Z,99.90
2019-06-07T06:04:49.484Z,99.90
2019-06-07T06:07:19.123Z,99.90
2019-06-07T06:09:48.470Z,99.90
2019-06-07T06:12:34.197Z,99.90
2019-06-07T06:14:50.652Z,97.40
2019-06-07T06:17:19.920Z,97.50
2019-06-07T06:19:52.506Z,98.80
2019-06-07T06:22:20.204Z,98.60
2019-06-07T06:25:29.911Z,98.80
2019-06-07T06:28:02.518Z,99.10
2019-06-07T06:29:54.650Z,97.90
2019-06-07T06:32:41.996Z,97.10
2019-06-07T06:34:55.965Z,98.60
2019-06-07T06:37:25.712Z,97.60
2019-06-07T06:39:55.010Z,96.00
2019-06-07T06:42:24.211Z,95.80
2019-06-07T06:44:54.141Z,92.70
2019-06-07T06:47:23.778Z,91.60
2019-06-07T06:49:54.447Z,88.70
2019-06-07T06:52:23.918Z,88.40
2019-06-07T06:54:59.924Z,88.70
2019-06-07T06:57:24.350Z,90.90
2019-06-07T06:59:53.899Z,90.40
2019-06-07T07:02:23.180Z,89.90
2019-06-07T07:04:54.037Z,89.60
2019-06-07T07:07:26.184Z,90.00
2019-06-07T07:09:59.251Z,88.50
2019-06-07T07:12:29.663Z,88.70
2019-06-07T07:14:58.999Z,87.00
2019-06-07T07:17:47.678Z,86.00
2019-06-07T07:20:00.197Z,84.20
2019-06-07T07:22:29.866Z,85.20
2019-06-07T07:24:59.592Z,84.00
2019-06-07T07:27:30.842Z,87.10
2019-06-07T07:30:34.848Z,84.20
2019-06-07T07:32:31.804Z,82.20
2019-06-07T07:35:01.051Z,81.60
2019-06-07T07:37:33.361Z,80.10
2019-06-07T07:40:55.022Z,81.70
2019-06-07T07:42:33.752Z,81.70
2019-06-07T07:45:04.326Z,79.40
2019-06-07T07:47:33.617Z,78.30
2019-06-07T07:50:03.127Z,77.30
2019-06-07T07:52:32.600Z,73.90
2019-06-07T07:55:01.813Z,71.60
2019-06-07T07:57:31.243Z,73.10
2019-06-07T08:00:25.671Z,71.50
2019-06-07T08:02:31.768Z,72.10
2019-06-07T08:05:25.620Z,71.80
2019-06-07T08:07:32.373Z,72.30
2019-06-07T08:10:04.125Z,73.00
2019-06-07T08:12:55.608Z,71.90
2019-06-07T08:15:06.533Z,72.60
2019-06-07T08:17:35.897Z,70.50
2019-06-07T08:20:06.426Z,71.80
2019-06-07T08:22:36.092Z,69.00
2019-06-07T08:25:06.504Z,69.00
2019-06-07T08:27:37.274Z,71.10
2019-06-07T08:30:45.953Z,72.90
2019-06-07T08:32:38.706Z,74.00
2019-06-07T08:35:08.767Z,76.00
2019-06-07T08:38:14.626Z,71.80
2019-06-07T08:40:10.157Z,70.80
2019-06-07T08:42:59.970Z,68.80
2019-06-07T08:45:12.063Z,68.10
2019-06-07T08:47:41.403Z,70.20
2019-06-07T08:50:13.113Z,71.70
2019-06-07T08:52:42.545Z,70.20
2019-06-07T08:55:12.660Z,67.70
2019-06-07T08:57:41.997Z,69.00
2019-06-07T09:02:44.652Z,66.40
2019-06-07T09:05:14.903Z,67.40
2019-06-07T09:07:44.159Z,67.30
2019-06-07T09:10:15.458Z,71.50
2019-06-07T09:12:45.212Z,70.00
2019-06-07T09:15:23.473Z,68.20
2019-06-07T09:18:30.503Z,68.50
2019-06-07T09:20:35.593Z,64.50
2019-06-07T09:22:49.804Z,66.40
2019-06-07T09:25:21.483Z,66.10
2019-06-07T09:27:50.803Z,64.20
2019-06-07T09:30:39.558Z,65.30
2019-06-07T09:33:09.273Z,69.80
2019-06-07T09:35:40.391Z,64.20
2019-06-07T09:38:23.735Z,63.70
2019-06-07T09:40:41.376Z,65.60
2019-06-07T09:45:42.324Z,69.70
2019-06-07T09:48:34.465Z,70.60
2019-06-07T09:50:46.878Z,70.20
2019-06-07T09:53:22.558Z,66.30
2019-06-07T09:55:47.295Z,74.70
2019-06-07T09:58:50.445Z,69.90
2019-06-07T10:00:47.542Z,68.80
2019-06-07T10:03:21.959Z,69.40
2019-06-07T10:05:47.979Z,69.40
2019-06-07T10:09:26.267Z,65.10
2019-06-07T10:10:49.674Z,66.60
2019-06-07T10:13:19.159Z,65.50
2019-06-07T10:15:48.510Z,66.90
2019-06-07T10:18:17.723Z,65.30
2019-06-07T10:20:47.036Z,67.00
2019-06-07T10:23:16.362Z,67.20
2019-06-07T10:25:45.693Z,68.80
2019-06-07T10:28:15.115Z,69.50
2019-06-07T10:30:44.417Z,67.50
2019-06-07T10:33:13.757Z,66.50
2019-06-07T10:35:44.149Z,67.00
2019-06-07T10:38:13.433Z,66.60
2019-06-07T10:40:42.987Z,69.60
2019-06-07T10:43:14.475Z,70.80
2019-06-07T10:45:44.744Z,72.20
2019-06-07T10:48:14.428Z,65.90
2019-06-07T10:50:43.721Z,65.00
2019-06-07T10:53:13.247Z,65.70
2019-06-07T10:55:42.806Z,66.20
2019-06-07T10:58:13.275Z,64.80
2019-06-07T11:00:42.913Z,70.00
2019-06-07T11:03:12.202Z,71.20
2019-06-07T11:05:41.963Z,67.20
2019-06-07T11:08:13.098Z,69.00
2019-06-07T11:10:42.500Z,72.00
2019-06-07T11:13:12.495Z,70.00
2019-06-07T11:15:42.063Z,70.50
2019-06-07T11:18:12.547Z,71.50
2019-06-07T11:20:42.362Z,74.30
2019-06-07T11:23:12.262Z,72.80
2019-06-07T11:25:42.067Z,78.10
2019-06-07T11:28:12.551Z,75.10
2019-06-07T11:30:42.331Z,76.90
2019-06-07T11:33:13.295Z,81.40
2019-06-07T11:35:42.703Z,83.80
2019-06-07T11:38:14.667Z,84.60
2019-06-07T11:40:44.091Z,80.50
2019-06-07T11:43:13.419Z,79.90
2019-06-07T11:45:43.898Z,78.00
2019-06-07T11:48:13.478Z,78.60
2019-06-07T11:50:43.459Z,80.90
2019-06-07T11:53:12.838Z,88.90
2019-06-07T11:55:42.144Z,80.90
2019-06-07T11:58:18.411Z,82.40
2019-06-07T12:00:44.382Z,79.30
2019-06-07T12:03:13.997Z,81.00
2019-06-07T12:05:43.450Z,81.90
2019-06-07T12:08:13.937Z,82.20
2019-06-07T12:10:43.764Z,83.30
2019-06-07T12:13:13.086Z,83.40
2019-06-07T12:15:42.503Z,86.20
2019-06-07T12:18:13.046Z,82.90
2019-06-07T12:20:42.631Z,85.20
2019-06-07T12:23:12.055Z,80.90
2019-06-07T12:25:44.228Z,81.40
2019-06-07T12:28:21.124Z,82.70
2019-06-07T12:30:55.096Z,81.80
2019-06-07T12:33:23.330Z,81.90
2019-06-07T12:35:52.658Z,82.90
2019-06-07T12:38:23.145Z,86.90
2019-06-07T12:40:57.439Z,85.40
2019-06-07T12:43:25.085Z,85.20
2019-06-07T12:45:54.396Z,83.10
2019-06-07T12:48:25.933Z,85.90
2019-06-07T12:50:54.663Z,86.20
2019-06-07T12:53:27.633Z,85.30
2019-06-07T12:55:54.984Z,84.60
2019-06-07T12:58:34.485Z,85.80
2019-06-07T13:00:59.847Z,88.40
2019-06-07T13:03:28.867Z,88.80
2019-06-07T13:05:58.205Z,85.00
2019-06-07T13:08:28.188Z,83.20
2019-06-07T13:11:14.030Z,84.30
2019-06-07T13:13:30.660Z,86.60
2019-06-07T13:16:00.356Z,84.30
2019-06-07T13:18:29.746Z,84.40
2019-06-07T13:21:00.512Z,85.80
2019-06-07T13:23:32.194Z,83.60
2019-06-07T13:26:05.353Z,83.60
2019-06-07T13:28:34.874Z,85.40
2019-06-07T13:31:04.827Z,86.20
2019-06-07T13:33:38.679Z,87.60
2019-06-07T13:36:05.771Z,86.50
2019-06-07T13:38:35.140Z,86.00
2019-06-07T13:41:04.431Z,85.00
2019-06-07T13:43:33.775Z,85.10
2019-06-07T13:46:03.058Z,89.70
2019-06-07T13:48:32.349Z,84.90
2019-06-07T13:51:01.577Z,82.70
2019-06-07T13:53:30.895Z,86.30
2019-06-07T13:56:00.277Z,82.00
2019-06-07T13:58:29.662Z,81.00
2019-06-07T14:00:58.953Z,81.70
2019-06-07T14:03:32.846Z,80.50
2019-06-07T14:05:59.250Z,79.50
2019-06-07T14:08:29.713Z,80.00
2019-06-07T14:10:59.388Z,81.30
2019-06-07T14:13:30.286Z,79.10
2019-06-07T14:15:59.886Z,80.70
2019-06-07T14:18:30.469Z,80.90
2019-06-07T14:21:00.643Z,80.10
2019-06-07T14:23:45.884Z,81.10
2019-06-07T14:26:01.791Z,80.30
2019-06-07T14:28:33.793Z,79.60
2019-06-07T14:31:02.204Z,80.50
2019-06-07T14:33:35.854Z,80.40
2019-06-07T14:36:05.409Z,80.20
2019-06-07T14:38:37.503Z,79.90
2019-06-07T14:41:05.733Z,79.40
2019-06-07T14:43:35.429Z,81.40
2019-06-07T14:46:07.712Z,80.60
2019-06-07T14:48:37.057Z,79.90
2019-06-07T14:51:06.433Z,79.90
2019-06-07T14:53:35.807Z,80.40
2019-06-07T14:56:05.159Z,80.30
2019-06-07T14:58:41.103Z,77.90
2019-06-07T15:01:05.474Z,79.50
2019-06-07T15:03:34.839Z,77.30
2019-06-07T15:06:04.379Z,77.70
2019-06-07T15:08:35.696Z,78.00
2019-06-07T15:11:04.995Z,79.40
2019-06-07T15:13:35.717Z,76.80
2019-06-07T15:16:05.444Z,76.90
2019-06-07T15:18:36.118Z,77.60
2019-06-07T15:21:05.744Z,78.00
2019-06-07T15:23:35.337Z,73.90
2019-06-07T15:26:04.870Z,74.20
2019-06-07T15:28:34.261Z,74.00
2019-06-07T15:31:03.806Z,74.80
2019-06-07T15:33:34.338Z,75.40
2019-06-07T15:36:03.949Z,76.00
2019-06-07T15:38:34.717Z,74.00
2019-06-07T15:41:03.994Z,74.40
2019-06-07T15:43:33.343Z,75.00
2019-06-07T15:46:02.696Z,72.90
2019-06-07T15:48:32.023Z,74.00
2019-06-07T15:51:01.309Z,73.50
2019-06-07T15:53:36.349Z,74.20
2019-06-07T15:56:02.214Z,75.60
2019-06-07T15:58:32.939Z,72.00
2019-06-07T16:01:02.410Z,71.20
2019-06-07T16:03:31.797Z,72.40
2019-06-07T16:06:00.999Z,72.80
2019-06-07T16:08:30.333Z,73.10
2019-06-07T16:10:59.548Z,73.10
2019-06-07T16:13:30.708Z,73.20
2019-06-07T16:16:00.246Z,74.40
2019-06-07T16:18:29.695Z,74.40
2019-06-07T16:20:59.021Z,75.00
2019-06-07T16:23:28.474Z,75.10
2019-06-07T16:25:59.393Z,77.20
2019-06-07T16:28:28.699Z,77.30
2019-06-07T16:31:00.943Z,78.50
2019-06-07T16:33:30.266Z,80.60
2019-06-07T16:35:59.588Z,79.90
2019-06-07T16:38:28.881Z,78.40
2019-06-07T16:40:58.332Z,79.40
2019-06-07T16:43:28.633Z,78.30
2019-06-07T16:45:57.931Z,78.10
2019-06-07T16:48:28.717Z,80.10
2019-06-07T16:50:58.510Z,80.60
2019-06-07T16:53:27.785Z,80.40
2019-06-07T16:55:57.042Z,78.60
2019-06-07T16:58:26.381Z,80.00
2019-06-07T17:00:58.298Z,81.20
2019-06-07T17:03:26.843Z,82.10
2019-06-07T17:05:56.187Z,82.00
2019-06-07T17:08:25.520Z,81.50
2019-06-07T17:10:54.915Z,82.20
2019-06-07T17:13:33.363Z,83.10
2019-06-07T17:15:57.632Z,84.00
2019-06-07T17:18:27.021Z,86.30
2019-06-07T17:20:56.305Z,87.20
2019-06-07T17:23:25.584Z,87.60
2019-06-07T17:25:54.904Z,88.50
2019-06-07T17:28:24.512Z,89.40
2019-06-07T17:30:55.043Z,90.20
2019-06-07T17:33:24.372Z,91.20
2019-06-07T17:35:53.585Z,91.60
2019-06-07T17:38:23.006Z,92.20
2019-06-07T17:40:52.287Z,92.20
2019-06-07T17:43:21.619Z,92.90
2019-06-07T17:45:54.594Z,93.00
2019-06-07T17:48:24.231Z,93.40
2019-06-07T17:50:54.222Z,94.00
2019-06-07T17:53:25.268Z,94.40
2019-06-07T17:55:54.570Z,95.10
2019-06-07T17:58:23.964Z,95.50
2019-06-07T18:00:53.818Z,96.10
2019-06-07T18:03:23.145Z,97.10
2019-06-07T18:05:54.591Z,97.10
2019-06-07T18:08:25.923Z,97.60
2019-06-07T18:10:55.356Z,98.00
2019-06-07T18:13:27.078Z,98.40
2019-06-07T18:15:59.408Z,98.50
